Airfield :
LOGIN :

Register | Disclaimer

   EN    FR    IT 

 










Legend :    VFR   Marginal VFR   IFR   Intensive IFR   Very Intensive IFR
Visi :
Ceiling :
>= 8 km
>= 3000ft
5 to 8 km
1000 to 3000 ft
1500m to 5 km
500 to 1000 ft
800 to 1500m
200 to 500 ft
< 800m
< 200 ft
Symbols :   Thunderstorms  Fog  Heavy snow  Heavy precipitations  Wind > 20 kt
SIGMETs :     Misc.  Thunderstorms  Icing  Turbulence  Mountain Waves  Volcanic Ashes






- Airport Elevation : 364 ft


LFAQ - Albert Bray

CURRENT METAR :
  • 270830Z AUTO 13016KT 1700 1200 R27/2000D SN BR OVC002/// ///TCU 00/00 Q0994 TEMPO 1200 SN OVC002 BECMG 12015G25KT

EXPIRED METARs :
  • 270800Z AUTO 13015KT 2100 -SN BR OVC003 00/00 Q0995 TEMPO 1200 SN BECMG 12015G25KT
  • 270730Z AUTO 14017KT 8000 -SNRA OVC005 01/01 Q0996 TEMPO 1200 SN BECMG 12015G25KT
  • 270700Z AUTO 16017KT 9000 -RA OVC007 02/02 Q0998 TEMPO 1200 SN OVC002
  • 270630Z AUTO 17015KT 9999 -RA OVC011 03/02 Q0999 TEMPO 1200 SN OVC002
  • 270600Z AUTO 17013KT 9999 -RA BKN017 OVC023 03/02 Q1000

TAF TAF LFAQ
Valid from the 27 at 06:00 until the 27 at 15:00 UTC


270500Z 2706/2715 18012KT 6000 RA OVC013
TEMPO 2706/2711 4000 RA OVC007
PROB40
TEMPO 2708/2711 1200 SN OVC002
BECMG 2709/2711 12015G25KT
BECMG 2711/2713 33020G35KT NSW
BECMG 2713/2715 BKN025



MET'MAP, your aeronautical weather chart ! - Copyright ORBIFLY December 2007 - Disclaimer

ORBIFLY MET'MAP TEAM :

Programming & Development : Alexandra Zaïnal
Concept & original design : Baudouin d'Aumeries
Assistance for programming : Marc-Olivier Méhu
Technical & hardware support : Manuel Goepfert

Contact : metmap@orbifly.com




SOURCES & CREDITS :

   NOAA